sensor_id;sensor_type;location;lat;lon;timestamp;temperature;humidity
16515;DHT22;8370;52.556;7.970;2023-11-19T00:02:18;9.60;99.90
16515;DHT22;8370;52.556;7.970;2023-11-19T00:04:44;9.60;99.90
16515;DHT22;8370;52.556;7.970;2023-11-19T00:07:09;9.60;99.90
16515;DHT22;8370;52.556;7.970;2023-11-19T00:09:37;9.60;99.90
16515;DHT22;8370;52.556;7.970;2023-11-19T00:12:03;9.60;99.90
16515;DHT22;8370;52.556;7.970;2023-11-19T00:14:29;9.60;99.90
16515;DHT22;8370;52.556;7.970;2023-11-19T00:16:55;9.60;99.90
16515;DHT22;8370;52.556;7.970;2023-11-19T00:19:20;9.60;99.90
16515;DHT22;8370;52.556;7.970;2023-11-19T00:21:46;9.70;99.90
16515;DHT22;8370;52.556;7.970;2023-11-19T00:24:12;9.70;99.90
16515;DHT22;8370;52.556;7.970;2023-11-19T00:26:38;9.70;99.90
16515;DHT22;8370;52.556;7.970;2023-11-19T00:29:03;9.70;99.90
16515;DHT22;8370;52.556;7.970;2023-11-19T00:31:29;9.70;99.90
16515;DHT22;8370;52.556;7.970;2023-11-19T00:33:54;9.80;99.90
16515;DHT22;8370;52.556;7.970;2023-11-19T00:36:20;9.80;99.90
16515;DHT22;8370;52.556;7.970;2023-11-19T00:38:46;9.90;99.90
16515;DHT22;8370;52.556;7.970;2023-11-19T00:41:11;9.90;99.90
16515;DHT22;8370;52.556;7.970;2023-11-19T00:43:37;9.80;99.90
16515;DHT22;8370;52.556;7.970;2023-11-19T00:46:03;9.90;99.90
16515;DHT22;8370;52.556;7.970;2023-11-19T00:48:28;9.90;99.90
16515;DHT22;8370;52.556;7.970;2023-11-19T00:50:54;10.00;99.90
16515;DHT22;8370;52.556;7.970;2023-11-19T00:53:19;10.00;99.90
16515;DHT22;8370;52.556;7.970;2023-11-19T00:55:45;10.00;99.90
16515;DHT22;8370;52.556;7.970;2023-11-19T00:58:10;10.10;99.90
16515;DHT22;8370;52.556;7.970;2023-11-19T01:00:35;10.10;99.90
16515;DHT22;8370;52.556;7.970;2023-11-19T01:03:01;10.10;99.90
16515;DHT22;8370;52.556;7.970;2023-11-19T01:05:26;10.30;99.90
16515;DHT22;8370;52.556;7.970;2023-11-19T01:07:53;10.40;99.90
16515;DHT22;8370;52.556;7.970;2023-11-19T01:10:19;10.40;99.90
16515;DHT22;8370;52.556;7.970;2023-11-19T01:12:45;10.40;99.90
16515;DHT22;8370;52.556;7.970;2023-11-19T01:15:11;10.40;99.90
16515;DHT22;8370;52.556;7.970;2023-11-19T01:17:38;10.40;99.90
16515;DHT22;8370;52.556;7.970;2023-11-19T01:20:03;10.40;99.90
16515;DHT22;8370;52.556;7.970;2023-11-19T01:22:31;10.50;99.90
16515;DHT22;8370;52.556;7.970;2023-11-19T01:24:57;10.60;99.90
16515;DHT22;8370;52.556;7.970;2023-11-19T01:27:26;10.60;99.90
16515;DHT22;8370;52.556;7.970;2023-11-19T01:29:51;10.60;99.90
16515;DHT22;8370;52.556;7.970;2023-11-19T01:32:17;10.70;99.90
16515;DHT22;8370;52.556;7.970;2023-11-19T01:34:42;10.70;99.90
16515;DHT22;8370;52.556;7.970;2023-11-19T01:37:07;10.70;99.90
16515;DHT22;8370;52.556;7.970;2023-11-19T01:39:37;10.70;99.90
16515;DHT22;8370;52.556;7.970;2023-11-19T01:42:03;10.70;99.90
16515;DHT22;8370;52.556;7.970;2023-11-19T01:44:29;10.70;99.90
16515;DHT22;8370;52.556;7.970;2023-11-19T01:46:54;10.70;99.90
16515;DHT22;8370;52.556;7.970;2023-11-19T01:49:20;10.80;99.90
16515;DHT22;8370;52.556;7.970;2023-11-19T01:51:45;10.80;99.90
16515;DHT22;8370;52.556;7.970;2023-11-19T01:54:11;11.00;99.90
16515;DHT22;8370;52.556;7.970;2023-11-19T01:56:37;10.90;99.90
16515;DHT22;8370;52.556;7.970;2023-11-19T01:59:05;10.90;99.90
16515;DHT22;8370;52.556;7.970;2023-11-19T02:01:32;11.10;99.90
16515;DHT22;8370;52.556;7.970;2023-11-19T02:03:59;11.10;99.90
16515;DHT22;8370;52.556;7.970;2023-11-19T02:06:26;11.10;99.90
16515;DHT22;8370;52.556;7.970;2023-11-19T02:08:52;11.10;99.90
16515;DHT22;8370;52.556;7.970;2023-11-19T02:11:18;11.10;99.90
16515;DHT22;8370;52.556;7.970;2023-11-19T02:13:43;11.10;99.90
16515;DHT22;8370;52.556;7.970;2023-11-19T02:16:09;11.20;99.90
16515;DHT22;8370;52.556;7.970;2023-11-19T02:18:36;11.20;99.90
16515;DHT22;8370;52.556;7.970;2023-11-19T02:21:02;11.20;99.90
16515;DHT22;8370;52.556;7.970;2023-11-19T02:23:27;11.30;99.90
16515;DHT22;8370;52.556;7.970;2023-11-19T02:25:57;11.30;99.90
16515;DHT22;8370;52.556;7.970;2023-11-19T02:28:25;11.30;99.90
16515;DHT22;8370;52.556;7.970;2023-11-19T02:30:50;11.40;99.90
16515;DHT22;8370;52.556;7.970;2023-11-19T02:33:16;11.50;99.90
16515;DHT22;8370;52.556;7.970;2023-11-19T02:35:41;11.50;99.90
16515;DHT22;8370;52.556;7.970;2023-11-19T02:38:07;11.50;99.90
16515;DHT22;8370;52.556;7.970;2023-11-19T02:40:33;11.50;99.90
16515;DHT22;8370;52.556;7.970;2023-11-19T02:42:58;11.60;99.90
16515;DHT22;8370;52.556;7.970;2023-11-19T02:45:24;11.50;99.90
16515;DHT22;8370;52.556;7.970;2023-11-19T02:47:50;11.60;99.90
16515;DHT22;8370;52.556;7.970;2023-11-19T02:50:17;11.70;99.90
16515;DHT22;8370;52.556;7.970;2023-11-19T02:52:45;11.80;99.90
16515;DHT22;8370;52.556;7.970;2023-11-19T02:55:11;11.80;99.90
16515;DHT22;8370;52.556;7.970;2023-11-19T02:57:39;11.80;99.90
16515;DHT22;8370;52.556;7.970;2023-11-19T03:00:17;11.80;99.90
16515;DHT22;8370;52.556;7.970;2023-11-19T03:02:44;11.80;99.90
16515;DHT22;8370;52.556;7.970;2023-11-19T03:05:11;11.80;99.90
16515;DHT22;8370;52.556;7.970;2023-11-19T03:07:37;11.80;99.90
16515;DHT22;8370;52.556;7.970;2023-11-19T03:10:02;11.90;99.90
16515;DHT22;8370;52.556;7.970;2023-11-19T03:12:31;11.90;99.90
16515;DHT22;8370;52.556;7.970;2023-11-19T03:14:56;11.90;99.90
16515;DHT22;8370;52.556;7.970;2023-11-19T03:17:21;11.90;99.90
16515;DHT22;8370;52.556;7.970;2023-11-19T03:19:50;12.00;99.90
16515;DHT22;8370;52.556;7.970;2023-11-19T03:22:15;12.00;99.90
16515;DHT22;8370;52.556;7.970;2023-11-19T03:24:41;12.00;99.90
16515;DHT22;8370;52.556;7.970;2023-11-19T03:27:06;12.10;99.90
16515;DHT22;8370;52.556;7.970;2023-11-19T03:29:32;12.10;99.90
16515;DHT22;8370;52.556;7.970;2023-11-19T03:31:57;12.10;99.90
16515;DHT22;8370;52.556;7.970;2023-11-19T03:34:22;12.10;99.90
16515;DHT22;8370;52.556;7.970;2023-11-19T03:36:48;12.10;99.90
16515;DHT22;8370;52.556;7.970;2023-11-19T03:39:14;12.00;99.90
16515;DHT22;8370;52.556;7.970;2023-11-19T03:41:39;12.00;99.90
16515;DHT22;8370;52.556;7.970;2023-11-19T03:44:05;12.00;99.90
16515;DHT22;8370;52.556;7.970;2023-11-19T03:46:30;12.00;99.90
16515;DHT22;8370;52.556;7.970;2023-11-19T03:48:56;12.00;99.90
16515;DHT22;8370;52.556;7.970;2023-11-19T03:51:21;12.10;99.90
16515;DHT22;8370;52.556;7.970;2023-11-19T03:53:47;12.20;99.90
16515;DHT22;8370;52.556;7.970;2023-11-19T03:56:12;12.20;99.90
16515;DHT22;8370;52.556;7.970;2023-11-19T03:58:38;12.30;99.90
16515;DHT22;8370;52.556;7.970;2023-11-19T04:01:04;12.20;99.90
16515;DHT22;8370;52.556;7.970;2023-11-19T04:03:30;12.30;99.90
16515;DHT22;8370;52.556;7.970;2023-11-19T04:05:55;12.30;99.90
16515;DHT22;8370;52.556;7.970;2023-11-19T04:08:21;12.20;99.90
16515;DHT22;8370;52.556;7.970;2023-11-19T04:10:47;12.20;99.90
16515;DHT22;8370;52.556;7.970;2023-11-19T04:13:12;12.30;99.90
16515;DHT22;8370;52.556;7.970;2023-11-19T04:15:38;12.30;99.90
16515;DHT22;8370;52.556;7.970;2023-11-19T04:18:03;12.30;99.90
16515;DHT22;8370;52.556;7.970;2023-11-19T04:20:28;12.20;99.90
16515;DHT22;8370;52.556;7.970;2023-11-19T04:22:54;12.20;99.90
16515;DHT22;8370;52.556;7.970;2023-11-19T04:25:19;12.20;99.90
16515;DHT22;8370;52.556;7.970;2023-11-19T04:27:45;12.20;99.90
16515;DHT22;8370;52.556;7.970;2023-11-19T04:30:11;12.30;99.90
16515;DHT22;8370;52.556;7.970;2023-11-19T04:32:37;12.20;99.90
16515;DHT22;8370;52.556;7.970;2023-11-19T04:35:02;12.10;99.90
16515;DHT22;8370;52.556;7.970;2023-11-19T04:37:28;12.20;99.90
16515;DHT22;8370;52.556;7.970;2023-11-19T04:39:54;12.30;99.90
16515;DHT22;8370;52.556;7.970;2023-11-19T04:42:21;12.30;99.90
16515;DHT22;8370;52.556;7.970;2023-11-19T04:44:47;12.30;99.90
16515;DHT22;8370;52.556;7.970;2023-11-19T04:47:12;12.30;99.90
16515;DHT22;8370;52.556;7.970;2023-11-19T04:49:42;12.30;99.90
16515;DHT22;8370;52.556;7.970;2023-11-19T04:52:10;12.40;99.90
16515;DHT22;8370;52.556;7.970;2023-11-19T04:54:40;12.40;99.90
16515;DHT22;8370;52.556;7.970;2023-11-19T04:57:06;12.40;99.90
16515;DHT22;8370;52.556;7.970;2023-11-19T04:59:33;12.40;99.90
16515;DHT22;8370;52.556;7.970;2023-11-19T05:01:59;12.40;99.90
16515;DHT22;8370;52.556;7.970;2023-11-19T05:04:24;12.40;99.90
16515;DHT22;8370;52.556;7.970;2023-11-19T05:06:50;12.40;99.90
16515;DHT22;8370;52.556;7.970;2023-11-19T05:09:15;12.40;99.90
16515;DHT22;8370;52.556;7.970;2023-11-19T05:11:41;12.40;99.90
16515;DHT22;8370;52.556;7.970;2023-11-19T05:14:06;12.40;99.90
16515;DHT22;8370;52.556;7.970;2023-11-19T05:16:32;12.40;99.90
16515;DHT22;8370;52.556;7.970;2023-11-19T05:18:57;12.30;99.90
16515;DHT22;8370;52.556;7.970;2023-11-19T05:21:23;12.30;99.90
16515;DHT22;8370;52.556;7.970;2023-11-19T05:23:49;12.30;99.90
16515;DHT22;8370;52.556;7.970;2023-11-19T05:26:18;12.40;99.90
16515;DHT22;8370;52.556;7.970;2023-11-19T05:28:45;12.40;99.90
16515;DHT22;8370;52.556;7.970;2023-11-19T05:31:10;12.30;99.90
16515;DHT22;8370;52.556;7.970;2023-11-19T05:33:35;12.40;99.90
16515;DHT22;8370;52.556;7.970;2023-11-19T05:36:01;12.30;99.90
16515;DHT22;8370;52.556;7.970;2023-11-19T05:38:29;12.40;99.90
16515;DHT22;8370;52.556;7.970;2023-11-19T05:40:54;12.40;99.90
16515;DHT22;8370;52.556;7.970;2023-11-19T05:43:19;12.40;99.90
16515;DHT22;8370;52.556;7.970;2023-11-19T05:45:45;12.40;99.90
16515;DHT22;8370;52.556;7.970;2023-11-19T05:48:10;12.50;99.90
16515;DHT22;8370;52.556;7.970;2023-11-19T05:50:36;12.50;99.90
16515;DHT22;8370;52.556;7.970;2023-11-19T05:53:01;12.50;99.90
16515;DHT22;8370;52.556;7.970;2023-11-19T05:55:27;12.40;99.90
16515;DHT22;8370;52.556;7.970;2023-11-19T05:57:53;12.40;99.90
16515;DHT22;8370;52.556;7.970;2023-11-19T06:00:19;12.30;99.90
16515;DHT22;8370;52.556;7.970;2023-11-19T06:02:45;12.30;99.90
16515;DHT22;8370;52.556;7.970;2023-11-19T06:05:10;12.40;99.90
16515;DHT22;8370;52.556;7.970;2023-11-19T06:07:36;12.40;99.90
16515;DHT22;8370;52.556;7.970;2023-11-19T06:10:02;12.40;99.90
16515;DHT22;8370;52.556;7.970;2023-11-19T06:12:30;12.30;99.90
16515;DHT22;8370;52.556;7.970;2023-11-19T06:14:57;12.20;99.90
16515;DHT22;8370;52.556;7.970;2023-11-19T06:17:22;12.30;99.90
16515;DHT22;8370;52.556;7.970;2023-11-19T06:19:48;12.30;99.90
16515;DHT22;8370;52.556;7.970;2023-11-19T06:22:13;12.30;99.90
16515;DHT22;8370;52.556;7.970;2023-11-19T06:24:38;12.30;99.90
16515;DHT22;8370;52.556;7.970;2023-11-19T06:27:04;12.30;99.90
16515;DHT22;8370;52.556;7.970;2023-11-19T06:29:29;12.30;99.90
16515;DHT22;8370;52.556;7.970;2023-11-19T06:31:55;12.30;99.90
16515;DHT22;8370;52.556;7.970;2023-11-19T06:34:20;12.30;99.90
16515;DHT22;8370;52.556;7.970;2023-11-19T06:36:46;12.30;99.90
16515;DHT22;8370;52.556;7.970;2023-11-19T06:39:11;12.30;99.90
16515;DHT22;8370;52.556;7.970;2023-11-19T06:41:37;12.20;99.90
16515;DHT22;8370;52.556;7.970;2023-11-19T06:44:04;12.30;99.90
16515;DHT22;8370;52.556;7.970;2023-11-19T06:46:30;12.30;99.90
16515;DHT22;8370;52.556;7.970;2023-11-19T06:48:55;12.20;99.90
16515;DHT22;8370;52.556;7.970;2023-11-19T06:51:21;12.30;99.90
16515;DHT22;8370;52.556;7.970;2023-11-19T06:53:46;12.30;99.90
16515;DHT22;8370;52.556;7.970;2023-11-19T06:56:21;12.30;99.90
16515;DHT22;8370;52.556;7.970;2023-11-19T06:58:47;12.20;99.90
16515;DHT22;8370;52.556;7.970;2023-11-19T07:01:14;12.20;99.90
16515;DHT22;8370;52.556;7.970;2023-11-19T07:03:40;12.20;99.90
16515;DHT22;8370;52.556;7.970;2023-11-19T07:06:05;12.30;99.90
16515;DHT22;8370;52.556;7.970;2023-11-19T07:08:31;12.30;99.90
16515;DHT22;8370;52.556;7.970;2023-11-19T07:10:56;12.20;99.90
16515;DHT22;8370;52.556;7.970;2023-11-19T07:13:22;12.20;99.90
16515;DHT22;8370;52.556;7.970;2023-11-19T07:15:47;12.20;99.90
16515;DHT22;8370;52.556;7.970;2023-11-19T07:18:13;12.20;99.90
16515;DHT22;8370;52.556;7.970;2023-11-19T07:20:39;12.10;99.90
16515;DHT22;8370;52.556;7.970;2023-11-19T07:23:05;12.20;99.90
16515;DHT22;8370;52.556;7.970;2023-11-19T07:25:31;12.10;99.90
16515;DHT22;8370;52.556;7.970;2023-11-19T07:27:56;12.10;99.90
16515;DHT22;8370;52.556;7.970;2023-11-19T07:30:22;12.10;99.90
16515;DHT22;8370;52.556;7.970;2023-11-19T07:32:47;12.10;99.90
16515;DHT22;8370;52.556;7.970;2023-11-19T07:35:13;12.20;99.90
16515;DHT22;8370;52.556;7.970;2023-11-19T07:37:40;12.20;99.90
16515;DHT22;8370;52.556;7.970;2023-11-19T07:40:05;12.10;99.90
16515;DHT22;8370;52.556;7.970;2023-11-19T07:42:31;12.10;99.90
16515;DHT22;8370;52.556;7.970;2023-11-19T07:44:57;12.20;99.90
16515;DHT22;8370;52.556;7.970;2023-11-19T07:47:22;12.20;99.90
16515;DHT22;8370;52.556;7.970;2023-11-19T07:49:49;12.20;99.90
16515;DHT22;8370;52.556;7.970;2023-11-19T07:52:15;12.20;99.90
16515;DHT22;8370;52.556;7.970;2023-11-19T07:54:40;12.10;99.90
16515;DHT22;8370;52.556;7.970;2023-11-19T07:57:06;12.20;99.90
16515;DHT22;8370;52.556;7.970;2023-11-19T07:59:31;12.20;99.90
16515;DHT22;8370;52.556;7.970;2023-11-19T08:01:57;12.20;99.90
16515;DHT22;8370;52.556;7.970;2023-11-19T08:04:23;12.10;99.90
16515;DHT22;8370;52.556;7.970;2023-11-19T08:06:49;12.10;99.90
16515;DHT22;8370;52.556;7.970;2023-11-19T08:09:14;12.10;99.90
16515;DHT22;8370;52.556;7.970;2023-11-19T08:11:40;12.00;99.90
16515;DHT22;8370;52.556;7.970;2023-11-19T08:14:06;12.00;99.90
16515;DHT22;8370;52.556;7.970;2023-11-19T08:16:31;12.10;99.90
16515;DHT22;8370;52.556;7.970;2023-11-19T08:18:57;12.00;99.90
16515;DHT22;8370;52.556;7.970;2023-11-19T08:21:23;12.10;99.90
16515;DHT22;8370;52.556;7.970;2023-11-19T08:23:49;12.10;99.90
16515;DHT22;8370;52.556;7.970;2023-11-19T08:26:14;12.10;99.90
16515;DHT22;8370;52.556;7.970;2023-11-19T08:28:40;12.30;99.90
16515;DHT22;8370;52.556;7.970;2023-11-19T08:31:05;12.30;99.90
16515;DHT22;8370;52.556;7.970;2023-11-19T08:33:31;12.20;99.90
16515;DHT22;8370;52.556;7.970;2023-11-19T08:35:57;12.20;99.90
16515;DHT22;8370;52.556;7.970;2023-11-19T08:38:24;12.20;99.90
16515;DHT22;8370;52.556;7.970;2023-11-19T08:40:49;12.20;99.90
16515;DHT22;8370;52.556;7.970;2023-11-19T08:43:14;12.30;99.90
16515;DHT22;8370;52.556;7.970;2023-11-19T08:45:41;12.20;99.90
16515;DHT22;8370;52.556;7.970;2023-11-19T08:48:06;12.30;99.90
16515;DHT22;8370;52.556;7.970;2023-11-19T08:50:32;12.30;99.90
16515;DHT22;8370;52.556;7.970;2023-11-19T08:52:57;12.40;99.90
16515;DHT22;8370;52.556;7.970;2023-11-19T08:55:23;12.40;99.90
16515;DHT22;8370;52.556;7.970;2023-11-19T08:57:48;12.40;99.90
16515;DHT22;8370;52.556;7.970;2023-11-19T09:00:14;12.40;99.90
16515;DHT22;8370;52.556;7.970;2023-11-19T09:02:39;12.40;99.90
16515;DHT22;8370;52.556;7.970;2023-11-19T09:05:05;12.40;99.90
16515;DHT22;8370;52.556;7.970;2023-11-19T09:07:32;12.50;99.90
16515;DHT22;8370;52.556;7.970;2023-11-19T09:09:58;12.50;99.90
16515;DHT22;8370;52.556;7.970;2023-11-19T09:12:24;12.40;99.90
16515;DHT22;8370;52.556;7.970;2023-11-19T09:14:49;12.50;99.90
16515;DHT22;8370;52.556;7.970;2023-11-19T09:17:15;12.40;99.90
16515;DHT22;8370;52.556;7.970;2023-11-19T09:19:40;12.40;99.90
16515;DHT22;8370;52.556;7.970;2023-11-19T09:22:06;12.40;99.90
16515;DHT22;8370;52.556;7.970;2023-11-19T09:24:31;12.50;99.90
16515;DHT22;8370;52.556;7.970;2023-11-19T09:26:57;12.50;99.90
16515;DHT22;8370;52.556;7.970;2023-11-19T09:29:22;12.40;99.90
16515;DHT22;8370;52.556;7.970;2023-11-19T09:31:49;12.40;99.90
16515;DHT22;8370;52.556;7.970;2023-11-19T09:34:14;12.40;99.90
16515;DHT22;8370;52.556;7.970;2023-11-19T09:36:39;12.40;99.90
16515;DHT22;8370;52.556;7.970;2023-11-19T09:39:09;12.40;99.90
16515;DHT22;8370;52.556;7.970;2023-11-19T09:41:35;12.40;99.90
16515;DHT22;8370;52.556;7.970;2023-11-19T09:44:00;12.40;99.90
16515;DHT22;8370;52.556;7.970;2023-11-19T09:46:26;12.40;99.90
16515;DHT22;8370;52.556;7.970;2023-11-19T09:48:54;12.30;99.90
16515;DHT22;8370;52.556;7.970;2023-11-19T09:51:21;12.30;99.90
16515;DHT22;8370;52.556;7.970;2023-11-19T09:53:47;12.40;99.90
16515;DHT22;8370;52.556;7.970;2023-11-19T09:56:13;12.40;99.90
16515;DHT22;8370;52.556;7.970;2023-11-19T09:58:39;12.40;99.90
16515;DHT22;8370;52.556;7.970;2023-11-19T10:01:05;12.50;99.90
16515;DHT22;8370;52.556;7.970;2023-11-19T10:03:33;12.70;99.90
16515;DHT22;8370;52.556;7.970;2023-11-19T10:06:00;12.70;99.90
16515;DHT22;8370;52.556;7.970;2023-11-19T10:08:26;12.80;99.90
16515;DHT22;8370;52.556;7.970;2023-11-19T10:10:51;12.80;99.90
16515;DHT22;8370;52.556;7.970;2023-11-19T10:13:26;12.80;99.90
16515;DHT22;8370;52.556;7.970;2023-11-19T10:15:52;12.90;99.90
16515;DHT22;8370;52.556;7.970;2023-11-19T10:18:18;13.00;99.90
16515;DHT22;8370;52.556;7.970;2023-11-19T10:20:43;13.10;99.90
16515;DHT22;8370;52.556;7.970;2023-11-19T10:23:10;13.00;99.90
16515;DHT22;8370;52.556;7.970;2023-11-19T10:25:36;13.00;99.90
16515;DHT22;8370;52.556;7.970;2023-11-19T10:28:02;13.00;99.90
16515;DHT22;8370;52.556;7.970;2023-11-19T10:30:28;13.00;99.90
16515;DHT22;8370;52.556;7.970;2023-11-19T10:33:07;13.00;99.90
16515;DHT22;8370;52.556;7.970;2023-11-19T10:35:33;13.00;99.90
16515;DHT22;8370;52.556;7.970;2023-11-19T10:38:00;13.00;99.90
16515;DHT22;8370;52.556;7.970;2023-11-19T10:40:37;12.90;99.90
16515;DHT22;8370;52.556;7.970;2023-11-19T10:43:03;12.80;99.90
16515;DHT22;8370;52.556;7.970;2023-11-19T10:45:28;12.80;99.90
16515;DHT22;8370;52.556;7.970;2023-11-19T10:47:54;12.80;99.90
16515;DHT22;8370;52.556;7.970;2023-11-19T10:50:20;12.80;99.90
16515;DHT22;8370;52.556;7.970;2023-11-19T10:52:45;12.70;99.90
16515;DHT22;8370;52.556;7.970;2023-11-19T10:55:13;12.60;99.90
16515;DHT22;8370;52.556;7.970;2023-11-19T10:57:40;12.60;99.90
16515;DHT22;8370;52.556;7.970;2023-11-19T11:00:09;12.50;99.90
16515;DHT22;8370;52.556;7.970;2023-11-19T11:02:38;12.40;99.90
16515;DHT22;8370;52.556;7.970;2023-11-19T11:05:05;12.40;99.90
16515;DHT22;8370;52.556;7.970;2023-11-19T11:07:31;12.40;99.90
16515;DHT22;8370;52.556;7.970;2023-11-19T11:09:56;12.30;99.90
16515;DHT22;8370;52.556;7.970;2023-11-19T11:12:22;12.20;99.90
16515;DHT22;8370;52.556;7.970;2023-11-19T11:14:49;12.20;99.90
16515;DHT22;8370;52.556;7.970;2023-11-19T11:17:16;12.10;99.90
16515;DHT22;8370;52.556;7.970;2023-11-19T11:19:42;12.00;99.90
16515;DHT22;8370;52.556;7.970;2023-11-19T11:22:08;12.00;99.90
16515;DHT22;8370;52.556;7.970;2023-11-19T11:27:42;12.10;99.90
16515;DHT22;8370;52.556;7.970;2023-11-19T11:32:54;12.20;99.90
16515;DHT22;8370;52.556;7.970;2023-11-19T11:38:00;12.10;99.90
16515;DHT22;8370;52.556;7.970;2023-11-19T11:40:27;12.10;99.90
16515;DHT22;8370;52.556;7.970;2023-11-19T11:42:52;12.00;99.90
16515;DHT22;8370;52.556;7.970;2023-11-19T11:45:18;12.20;99.90
16515;DHT22;8370;52.556;7.970;2023-11-19T11:50:19;12.10;99.90
16515;DHT22;8370;52.556;7.970;2023-11-19T11:55:28;12.00;99.90
16515;DHT22;8370;52.556;7.970;2023-11-19T11:57:57;11.90;99.90
16515;DHT22;8370;52.556;7.970;2023-11-19T12:02:59;11.90;99.90
16515;DHT22;8370;52.556;7.970;2023-11-19T12:05:25;11.80;99.90
16515;DHT22;8370;52.556;7.970;2023-11-19T12:07:57;11.80;99.90
16515;DHT22;8370;52.556;7.970;2023-11-19T12:10:29;11.80;99.90
16515;DHT22;8370;52.556;7.970;2023-11-19T12:13:00;11.80;99.90
16515;DHT22;8370;52.556;7.970;2023-11-19T12:15:25;11.80;99.90
16515;DHT22;8370;52.556;7.970;2023-11-19T12:17:55;11.70;99.90
16515;DHT22;8370;52.556;7.970;2023-11-19T12:20:21;11.80;99.90
16515;DHT22;8370;52.556;7.970;2023-11-19T12:22:47;11.90;99.90
16515;DHT22;8370;52.556;7.970;2023-11-19T12:25:14;11.90;99.90
16515;DHT22;8370;52.556;7.970;2023-11-19T12:27:42;12.00;99.90
16515;DHT22;8370;52.556;7.970;2023-11-19T12:30:08;12.10;99.90
16515;DHT22;8370;52.556;7.970;2023-11-19T12:32:40;12.20;99.90
16515;DHT22;8370;52.556;7.970;2023-11-19T12:35:06;12.40;99.90
16515;DHT22;8370;52.556;7.970;2023-11-19T12:37:32;12.60;99.90
16515;DHT22;8370;52.556;7.970;2023-11-19T12:40:01;12.60;99.90
16515;DHT22;8370;52.556;7.970;2023-11-19T12:42:35;12.60;99.90
16515;DHT22;8370;52.556;7.970;2023-11-19T12:45:01;12.60;99.90
16515;DHT22;8370;52.556;7.970;2023-11-19T12:47:27;12.50;99.90
16515;DHT22;8370;52.556;7.970;2023-11-19T12:49:56;12.40;99.90
16515;DHT22;8370;52.556;7.970;2023-11-19T12:52:21;12.30;99.90
16515;DHT22;8370;52.556;7.970;2023-11-19T12:54:48;12.30;99.90
16515;DHT22;8370;52.556;7.970;2023-11-19T12:57:14;12.30;99.90
16515;DHT22;8370;52.556;7.970;2023-11-19T12:59:39;12.30;99.90
16515;DHT22;8370;52.556;7.970;2023-11-19T13:02:05;12.50;99.90
16515;DHT22;8370;52.556;7.970;2023-11-19T13:04:32;12.70;99.90
16515;DHT22;8370;52.556;7.970;2023-11-19T13:06:58;12.80;99.90
16515;DHT22;8370;52.556;7.970;2023-11-19T13:09:24;12.90;99.90
16515;DHT22;8370;52.556;7.970;2023-11-19T13:11:50;12.90;99.90
16515;DHT22;8370;52.556;7.970;2023-11-19T13:14:16;12.90;99.90
16515;DHT22;8370;52.556;7.970;2023-11-19T13:16:42;12.80;99.90
16515;DHT22;8370;52.556;7.970;2023-11-19T13:19:08;12.80;99.90
16515;DHT22;8370;52.556;7.970;2023-11-19T13:21:36;12.70;99.90
16515;DHT22;8370;52.556;7.970;2023-11-19T13:24:03;12.60;99.90
16515;DHT22;8370;52.556;7.970;2023-11-19T13:26:28;12.60;99.90
16515;DHT22;8370;52.556;7.970;2023-11-19T13:28:54;12.50;99.90
16515;DHT22;8370;52.556;7.970;2023-11-19T13:31:19;12.40;99.90
16515;DHT22;8370;52.556;7.970;2023-11-19T13:33:45;12.30;99.90
16515;DHT22;8370;52.556;7.970;2023-11-19T13:36:11;12.20;99.90
16515;DHT22;8370;52.556;7.970;2023-11-19T13:38:36;12.10;99.90
16515;DHT22;8370;52.556;7.970;2023-11-19T13:41:05;11.90;99.90
16515;DHT22;8370;52.556;7.970;2023-11-19T13:43:30;11.80;99.90
16515;DHT22;8370;52.556;7.970;2023-11-19T13:45:56;11.80;99.90
16515;DHT22;8370;52.556;7.970;2023-11-19T13:48:23;11.70;99.90
16515;DHT22;8370;52.556;7.970;2023-11-19T13:50:49;11.60;99.90
16515;DHT22;8370;52.556;7.970;2023-11-19T13:53:14;11.50;99.90
16515;DHT22;8370;52.556;7.970;2023-11-19T13:55:40;11.50;99.90
16515;DHT22;8370;52.556;7.970;2023-11-19T13:58:05;11.40;99.90
16515;DHT22;8370;52.556;7.970;2023-11-19T14:00:30;11.30;99.90
16515;DHT22;8370;52.556;7.970;2023-11-19T14:02:56;11.30;99.90
16515;DHT22;8370;52.556;7.970;2023-11-19T14:05:21;11.20;99.90
16515;DHT22;8370;52.556;7.970;2023-11-19T14:07:48;11.30;99.90
16515;DHT22;8370;52.556;7.970;2023-11-19T14:10:14;11.20;99.90
16515;DHT22;8370;52.556;7.970;2023-11-19T14:12:40;11.20;99.90
16515;DHT22;8370;52.556;7.970;2023-11-19T14:15:06;11.30;99.90
16515;DHT22;8370;52.556;7.970;2023-11-19T14:17:32;11.30;99.90
16515;DHT22;8370;52.556;7.970;2023-11-19T14:19:59;11.30;99.90
16515;DHT22;8370;52.556;7.970;2023-11-19T14:22:24;11.30;99.90
16515;DHT22;8370;52.556;7.970;2023-11-19T14:24:50;11.40;99.90
16515;DHT22;8370;52.556;7.970;2023-11-19T14:27:15;11.40;99.90
16515;DHT22;8370;52.556;7.970;2023-11-19T14:29:43;11.40;99.90
16515;DHT22;8370;52.556;7.970;2023-11-19T14:32:09;11.40;99.90
16515;DHT22;8370;52.556;7.970;2023-11-19T14:34:35;11.50;99.90
16515;DHT22;8370;52.556;7.970;2023-11-19T14:37:00;11.40;99.90
16515;DHT22;8370;52.556;7.970;2023-11-19T14:39:28;11.50;99.90
16515;DHT22;8370;52.556;7.970;2023-11-19T14:41:57;11.50;99.90
16515;DHT22;8370;52.556;7.970;2023-11-19T14:44:26;11.50;99.90
16515;DHT22;8370;52.556;7.970;2023-11-19T14:46:52;11.60;99.90
16515;DHT22;8370;52.556;7.970;2023-11-19T14:49:17;11.60;99.90
16515;DHT22;8370;52.556;7.970;2023-11-19T14:51:43;11.50;99.90
16515;DHT22;8370;52.556;7.970;2023-11-19T14:54:08;11.50;99.90
16515;DHT22;8370;52.556;7.970;2023-11-19T14:56:34;11.60;99.90
16515;DHT22;8370;52.556;7.970;2023-11-19T14:58:59;11.60;99.90
16515;DHT22;8370;52.556;7.970;2023-11-19T15:01:25;11.60;99.90
16515;DHT22;8370;52.556;7.970;2023-11-19T15:03:50;11.60;99.90
16515;DHT22;8370;52.556;7.970;2023-11-19T15:06:16;11.60;99.90
16515;DHT22;8370;52.556;7.970;2023-11-19T15:08:41;11.60;99.90
16515;DHT22;8370;52.556;7.970;2023-11-19T15:11:07;11.60;99.90
16515;DHT22;8370;52.556;7.970;2023-11-19T15:13:34;11.60;99.90
16515;DHT22;8370;52.556;7.970;2023-11-19T15:16:01;11.60;99.90
16515;DHT22;8370;52.556;7.970;2023-11-19T15:18:27;11.60;99.90
16515;DHT22;8370;52.556;7.970;2023-11-19T15:20:53;11.50;99.90
16515;DHT22;8370;52.556;7.970;2023-11-19T15:23:18;11.50;99.90
16515;DHT22;8370;52.556;7.970;2023-11-19T15:25:44;11.50;99.90
16515;DHT22;8370;52.556;7.970;2023-11-19T15:28:10;11.50;99.90
16515;DHT22;8370;52.556;7.970;2023-11-19T15:30:35;11.50;99.90
16515;DHT22;8370;52.556;7.970;2023-11-19T15:33:01;11.40;99.90
16515;DHT22;8370;52.556;7.970;2023-11-19T15:35:26;11.30;99.90
16515;DHT22;8370;52.556;7.970;2023-11-19T15:37:52;11.30;99.90
16515;DHT22;8370;52.556;7.970;2023-11-19T15:40:17;11.30;99.90
16515;DHT22;8370;52.556;7.970;2023-11-19T15:42:43;11.30;99.90
16515;DHT22;8370;52.556;7.970;2023-11-19T15:45:09;11.20;99.90
16515;DHT22;8370;52.556;7.970;2023-11-19T15:47:35;11.20;99.90
16515;DHT22;8370;52.556;7.970;2023-11-19T15:50:01;11.20;99.90
16515;DHT22;8370;52.556;7.970;2023-11-19T15:52:26;11.10;99.90
16515;DHT22;8370;52.556;7.970;2023-11-19T15:54:52;11.10;99.90
16515;DHT22;8370;52.556;7.970;2023-11-19T15:57:18;11.20;99.90